createdAt,value
2018-07-25T00:00:13.261Z,29.93
2018-07-25T00:00:46.292Z,28.20
2018-07-25T00:01:19.317Z,30.75
2018-07-25T00:01:52.375Z,27.73
2018-07-25T00:02:25.411Z,25.50
2018-07-25T00:02:58.405Z,27.77
2018-07-25T00:03:31.719Z,26.20
2018-07-25T00:04:05.078Z,25.80
2018-07-25T00:04:38.102Z,30.85
2018-07-25T00:05:11.148Z,27.25
2018-07-25T00:05:44.201Z,28.23
2018-07-25T00:06:17.293Z,27.82
2018-07-25T00:06:50.389Z,27.32
2018-07-25T00:07:23.409Z,27.42
2018-07-25T00:07:56.454Z,29.15
2018-07-25T00:08:29.541Z,26.85
2018-07-25T00:09:02.860Z,28.55
2018-07-25T00:09:35.857Z,27.90
2018-07-25T00:10:09.683Z,27.30
2018-07-25T00:10:48.543Z,24.90
2018-07-25T00:11:21.547Z,26.70
2018-07-25T00:11:54.577Z,28.37
2018-07-25T00:12:27.595Z,29.02
2018-07-25T00:13:00.618Z,24.30
2018-07-25T00:13:33.613Z,28.85
2018-07-25T00:14:06.787Z,28.50
2018-07-25T00:14:39.807Z,24.30
2018-07-25T00:15:12.845Z,26.50
2018-07-25T00:15:45.833Z,33.63
2018-07-25T00:16:18.899Z,27.67
2018-07-25T00:16:51.997Z,29.02
2018-07-25T00:17:25.310Z,30.35
2018-07-25T00:17:58.311Z,27.65
2018-07-25T00:18:31.330Z,26.82
2018-07-25T00:19:04.457Z,28.15
2018-07-25T00:19:37.509Z,23.95
2018-07-25T00:20:10.559Z,30.08
2018-07-25T00:20:43.646Z,28.57
2018-07-25T00:21:16.651Z,28.02
2018-07-25T00:21:49.695Z,27.37
2018-07-25T00:22:22.701Z,26.35
2018-07-25T00:22:55.691Z,29.27
2018-07-25T00:23:28.687Z,30.00
2018-07-25T00:24:01.705Z,25.88
2018-07-25T00:24:36.065Z,25.82
2018-07-25T00:25:09.099Z,27.32
2018-07-25T00:25:42.147Z,31.25
2018-07-25T00:26:15.207Z,28.35
2018-07-25T00:26:48.225Z,29.00
2018-07-25T00:27:21.223Z,30.10
2018-07-25T00:27:54.245Z,29.20
2018-07-25T00:28:27.239Z,30.08
2018-07-25T00:29:00.252Z,27.95
2018-07-25T00:29:33.275Z,26.35
2018-07-25T00:30:06.391Z,24.95
2018-07-25T00:30:39.387Z,25.52
2018-07-25T00:31:12.435Z,29.57
2018-07-25T00:31:45.438Z,27.25
2018-07-25T00:32:18.419Z,29.02
2018-07-25T00:32:51.415Z,27.45
2018-07-25T00:33:24.417Z,26.75
2018-07-25T00:33:57.413Z,29.90
2018-07-25T00:34:30.413Z,28.27
2018-07-25T00:35:03.439Z,25.70
2018-07-25T00:35:36.569Z,25.12
2018-07-25T00:36:09.590Z,26.33
2018-07-25T00:36:42.584Z,26.52
2018-07-25T00:37:15.649Z,25.75
2018-07-25T00:37:48.651Z,28.65
2018-07-25T00:38:21.668Z,27.45
2018-07-25T00:38:54.681Z,28.30
2018-07-25T00:39:27.665Z,28.77
2018-07-25T00:40:00.645Z,27.95
2018-07-25T00:40:38.645Z,26.45
2018-07-25T00:41:11.651Z,28.57
2018-07-25T00:41:44.692Z,28.57
2018-07-25T00:42:17.715Z,28.77
2018-07-25T00:42:50.729Z,30.12
2018-07-25T00:43:23.737Z,27.90
2018-07-25T00:43:56.755Z,26.15
2018-07-25T00:44:29.939Z,28.07
2018-07-25T00:45:03.034Z,32.80
2018-07-25T00:45:36.088Z,27.32
2018-07-25T00:46:09.259Z,29.42
2018-07-25T00:46:42.273Z,26.97
2018-07-25T00:47:15.277Z,25.00
2018-07-25T00:47:48.312Z,26.55
2018-07-25T00:48:21.322Z,28.98
2018-07-25T00:48:54.337Z,28.50
2018-07-25T00:49:27.343Z,31.45
2018-07-25T00:50:00.335Z,32.80
2018-07-25T00:50:33.347Z,33.63
2018-07-25T00:51:06.374Z,28.32
2018-07-25T00:53:08.920Z,27.25
2018-07-25T00:53:41.887Z,29.92
2018-07-25T00:54:14.883Z,29.48
2018-07-25T00:54:47.975Z,29.42
2018-07-25T00:55:21.002Z,27.60
2018-07-25T00:55:54.018Z,30.40
2018-07-25T00:56:27.109Z,28.47
2018-07-25T00:57:00.127Z,30.68
2018-07-25T00:57:33.143Z,29.45
2018-07-25T00:58:06.192Z,29.32
2018-07-25T00:58:39.235Z,27.02
2018-07-25T00:59:12.296Z,29.72
2018-07-25T00:59:45.305Z,30.85
2018-07-25T01:00:18.395Z,30.92
2018-07-25T01:00:51.426Z,31.68
2018-07-25T01:01:24.510Z,31.48
2018-07-25T01:01:57.590Z,26.77
2018-07-25T01:02:30.636Z,31.05
2018-07-25T01:03:03.674Z,31.25
2018-07-25T01:03:36.698Z,32.05
2018-07-25T01:04:09.695Z,31.55
2018-07-25T01:04:42.741Z,30.65
2018-07-25T01:05:16.007Z,31.87
2018-07-25T01:05:49.063Z,31.02
2018-07-25T01:06:22.662Z,33.42
2018-07-25T01:06:55.744Z,31.52
2018-07-25T01:07:28.782Z,31.52
2018-07-25T01:08:01.827Z,29.15
2018-07-25T01:08:34.824Z,31.60
2018-07-25T01:09:09.593Z,31.07
2018-07-25T01:09:42.678Z,30.88
2018-07-25T01:10:15.726Z,29.15
2018-07-25T01:10:48.723Z,29.60
2018-07-25T01:11:21.760Z,30.68
2018-07-25T01:11:54.833Z,31.73
2018-07-25T01:12:27.878Z,33.50
2018-07-25T01:13:00.901Z,32.83
2018-07-25T01:13:33.959Z,28.85
2018-07-25T01:14:07.027Z,28.73
2018-07-25T01:14:40.008Z,30.17
2018-07-25T01:15:13.055Z,30.88
2018-07-25T01:15:46.085Z,28.00
2018-07-25T01:16:19.149Z,28.35
2018-07-25T01:16:52.187Z,32.15
2018-07-25T01:17:25.231Z,28.30
2018-07-25T01:17:58.227Z,31.02
2018-07-25T01:18:31.245Z,31.33
2018-07-25T01:19:04.325Z,29.70
2018-07-25T01:19:37.359Z,31.02
2018-07-25T01:20:10.371Z,32.30
2018-07-25T01:22:12.953Z,34.98
2018-07-25T01:22:45.963Z,36.77
2018-07-25T01:23:18.973Z,29.55
2018-07-25T01:23:51.967Z,30.43
2018-07-25T01:24:24.989Z,32.95
2018-07-25T01:24:58.053Z,30.30
2018-07-25T01:25:31.067Z,30.35
2018-07-25T01:26:04.076Z,28.23
2018-07-25T01:26:37.085Z,32.20
2018-07-25T01:27:10.308Z,32.42
2018-07-25T01:27:43.381Z,32.98
2018-07-25T01:28:16.395Z,33.42
2018-07-25T01:28:49.395Z,27.98
2018-07-25T01:29:22.439Z,29.45
2018-07-25T01:29:55.423Z,29.60
2018-07-25T01:30:28.437Z,32.28
2018-07-25T01:31:01.484Z,28.23
2018-07-25T01:31:34.486Z,28.38
2018-07-25T01:32:07.515Z,29.35
2018-07-25T01:32:40.538Z,30.17
2018-07-25T01:33:13.565Z,27.30
2018-07-25T01:33:46.588Z,27.32
2018-07-25T01:34:19.596Z,27.67
2018-07-25T01:34:52.649Z,26.50
2018-07-25T01:35:25.656Z,26.55
2018-07-25T01:35:58.687Z,29.90
2018-07-25T01:36:31.712Z,30.45
2018-07-25T01:37:04.741Z,30.00
2018-07-25T01:37:37.817Z,27.35
2018-07-25T01:38:10.819Z,26.27
2018-07-25T01:38:43.829Z,28.40
2018-07-25T01:39:16.823Z,29.02
2018-07-25T01:39:49.827Z,31.82
2018-07-25T01:40:22.929Z,30.95
2018-07-25T01:40:56.024Z,34.58
2018-07-25T01:41:29.018Z,31.65
2018-07-25T01:42:02.016Z,30.08
2018-07-25T01:42:35.039Z,31.62
2018-07-25T01:43:08.093Z,34.00
2018-07-25T01:43:41.059Z,28.35
2018-07-25T01:44:14.050Z,29.42
2018-07-25T01:44:47.295Z,27.73
2018-07-25T01:45:20.327Z,31.80
2018-07-25T01:45:53.318Z,32.03
2018-07-25T01:46:26.313Z,32.03
2018-07-25T01:46:59.331Z,33.23
2018-07-25T01:47:32.339Z,32.08
2018-07-25T01:48:05.399Z,30.45
2018-07-25T01:48:38.418Z,33.75
2018-07-25T01:49:11.433Z,34.85
2018-07-25T01:49:44.429Z,32.60
2018-07-25T01:50:17.489Z,33.73
2018-07-25T01:50:50.743Z,32.78
2018-07-25T01:51:23.777Z,33.23
2018-07-25T01:51:56.819Z,34.30
2018-07-25T01:52:29.806Z,31.00
2018-07-25T01:53:02.845Z,29.37
2018-07-25T01:53:35.850Z,31.73
2018-07-25T01:54:08.879Z,29.23
2018-07-25T01:54:41.885Z,33.92
2018-07-25T01:55:14.896Z,32.55
2018-07-25T01:55:47.897Z,28.65
2018-07-25T01:56:20.955Z,30.37
2018-07-25T01:56:53.991Z,31.73
2018-07-25T01:57:27.027Z,27.57
2018-07-25T01:58:00.068Z,32.23
2018-07-25T01:58:33.089Z,32.90
2018-07-25T01:59:06.141Z,34.38
2018-07-25T01:59:39.163Z,29.52
2018-07-25T02:00:12.145Z,31.52
2018-07-25T02:00:46.900Z,33.08
2018-07-25T02:01:19.888Z,29.95
2018-07-25T02:01:52.875Z,26.87
2018-07-25T02:02:25.893Z,29.87
2018-07-25T02:02:58.925Z,28.20
2018-07-25T02:03:31.954Z,27.82
2018-07-25T02:04:05.363Z,30.68
2018-07-25T02:04:38.338Z,31.40
2018-07-25T02:05:11.342Z,32.45
2018-07-25T02:05:44.405Z,29.23
2018-07-25T02:06:17.439Z,28.60
2018-07-25T02:06:50.463Z,29.00
2018-07-25T02:07:23.575Z,27.80
2018-07-25T02:07:56.569Z,31.00
2018-07-25T02:08:29.575Z,30.65
2018-07-25T02:09:02.928Z,29.20
2018-07-25T02:09:35.951Z,31.95
2018-07-25T02:10:09.076Z,27.67
2018-07-25T02:10:43.889Z,30.65
2018-07-25T02:11:16.923Z,35.00
2018-07-25T02:11:49.927Z,32.90
2018-07-25T02:12:23.013Z,26.75
2018-07-25T02:12:56.096Z,27.55
2018-07-25T02:13:29.133Z,27.65
2018-07-25T02:14:02.159Z,30.30
2018-07-25T02:14:35.171Z,30.65
2018-07-25T02:15:08.319Z,28.67
2018-07-25T02:15:41.364Z,28.98
2018-07-25T02:16:14.431Z,28.98
2018-07-25T02:16:47.461Z,29.30
2018-07-25T02:17:20.495Z,28.95
2018-07-25T02:17:53.731Z,29.65
2018-07-25T02:18:26.773Z,29.82
2018-07-25T02:18:59.847Z,26.93
2018-07-25T02:22:14.766Z,30.97
2018-07-25T02:22:47.765Z,31.45
2018-07-25T02:23:20.763Z,33.20
2018-07-25T02:23:53.795Z,36.65
2018-07-25T02:24:26.827Z,36.45
2018-07-25T02:24:59.905Z,32.98
2018-07-25T02:25:32.913Z,33.80
2018-07-25T02:26:05.923Z,33.42
2018-07-25T02:26:38.915Z,35.28
2018-07-25T02:27:11.939Z,31.00
2018-07-25T02:27:44.939Z,27.90
2018-07-25T02:28:17.939Z,33.18
2018-07-25T02:28:50.952Z,32.75
2018-07-25T02:29:23.988Z,33.53
2018-07-25T02:29:57.034Z,33.73
2018-07-25T02:30:30.047Z,30.68
2018-07-25T02:31:03.091Z,35.85
2018-07-25T02:31:36.095Z,33.05
2018-07-25T02:33:44.304Z,33.15
2018-07-25T02:34:19.849Z,28.92
2018-07-25T02:34:52.890Z,29.15
2018-07-25T02:35:25.912Z,29.87
2018-07-25T02:35:58.921Z,31.48
2018-07-25T02:36:31.985Z,35.13
2018-07-25T02:37:05.051Z,39.98
2018-07-25T02:37:38.061Z,37.90
2018-07-25T02:38:11.103Z,36.88
2018-07-25T02:38:44.157Z,36.80
2018-07-25T02:39:17.229Z,35.58
2018-07-25T02:39:50.275Z,33.00
2018-07-25T02:40:23.293Z,35.43
2018-07-25T02:40:56.361Z,35.45
2018-07-25T02:41:29.360Z,34.53
2018-07-25T02:42:02.374Z,37.20
2018-07-25T02:42:35.459Z,32.73
2018-07-25T02:43:08.438Z,34.53
2018-07-25T02:43:41.439Z,37.67
2018-07-25T02:44:14.595Z,36.95
2018-07-25T02:44:47.619Z,34.08
2018-07-25T02:45:20.649Z,31.15
2018-07-25T02:45:53.675Z,31.68
2018-07-25T02:46:26.703Z,33.70
2018-07-25T02:46:59.771Z,33.20
2018-07-25T02:47:32.778Z,33.70
2018-07-25T02:48:05.835Z,33.38
2018-07-25T02:48:38.876Z,35.95
2018-07-25T02:49:11.873Z,32.23
2018-07-25T02:49:44.883Z,33.53
2018-07-25T02:50:17.898Z,35.35
2018-07-25T02:50:50.868Z,32.75
2018-07-25T02:51:23.856Z,34.25
2018-07-25T02:51:56.845Z,35.75
2018-07-25T02:52:29.897Z,32.33
2018-07-25T02:53:02.963Z,35.17
2018-07-25T02:53:35.977Z,36.60
2018-07-25T02:54:09.034Z,42.62
2018-07-25T02:54:42.005Z,36.42
2018-07-25T02:55:15.073Z,36.15
2018-07-25T02:55:48.090Z,34.13
2018-07-25T02:56:21.093Z,35.78
2018-07-25T02:56:54.197Z,38.58
2018-07-25T02:57:27.231Z,32.73
2018-07-25T02:58:00.233Z,34.67
2018-07-25T02:58:33.247Z,37.28
2018-07-25T02:59:06.230Z,41.80
2018-07-25T02:59:39.201Z,38.60
2018-07-25T03:00:12.336Z,39.23
2018-07-25T03:00:45.371Z,41.02
2018-07-25T03:01:18.607Z,40.17
2018-07-25T03:01:51.627Z,38.08
2018-07-25T03:02:24.630Z,33.65
2018-07-25T03:02:57.707Z,38.05
2018-07-25T03:03:30.727Z,37.53
2018-07-25T03:04:03.743Z,37.03
2018-07-25T03:04:36.742Z,36.75
2018-07-25T03:05:09.790Z,36.98
2018-07-25T03:05:42.837Z,31.33
2018-07-25T03:06:16.018Z,33.33
2018-07-25T03:08:18.608Z,33.23
2018-07-25T03:08:51.616Z,31.68
2018-07-25T03:09:24.623Z,30.75
2018-07-25T03:09:57.667Z,31.37
2018-07-25T03:10:30.695Z,36.73
2018-07-25T03:11:03.717Z,36.45
2018-07-25T03:11:36.837Z,33.65
2018-07-25T03:12:09.827Z,37.67
2018-07-25T03:12:42.879Z,31.85
2018-07-25T03:13:15.941Z,33.70
2018-07-25T03:13:48.970Z,33.75
2018-07-25T03:14:22.302Z,34.43
2018-07-25T03:14:55.367Z,32.80
2018-07-25T03:15:28.386Z,33.30
2018-07-25T03:16:04.933Z,33.78
2018-07-25T03:16:37.985Z,33.55
2018-07-25T03:17:11.153Z,35.70
2018-07-25T03:17:44.297Z,34.63
2018-07-25T03:18:17.374Z,32.33
2018-07-25T03:18:50.341Z,36.00
2018-07-25T03:19:23.325Z,34.50
2018-07-25T03:19:56.337Z,33.23
2018-07-25T03:20:29.331Z,32.30
2018-07-25T03:21:02.483Z,33.98
2018-07-25T03:21:35.450Z,34.95
2018-07-25T03:22:08.492Z,31.82
2018-07-25T03:22:41.603Z,37.03
2018-07-25T03:23:14.609Z,33.92
2018-07-25T03:23:47.673Z,39.60
2018-07-25T03:24:20.710Z,44.08
2018-07-25T03:24:53.718Z,37.35
2018-07-25T03:25:26.720Z,42.35
2018-07-25T03:25:59.760Z,38.95
2018-07-25T03:26:32.759Z,38.78
2018-07-25T03:27:06.048Z,39.13
2018-07-25T03:27:39.056Z,38.23
2018-07-25T03:28:12.078Z,40.83
2018-07-25T03:28:45.376Z,39.98
2018-07-25T03:29:18.362Z,41.55
2018-07-25T03:29:51.354Z,38.10
2018-07-25T03:30:24.414Z,37.50
2018-07-25T03:30:57.964Z,38.23
2018-07-25T03:31:31.044Z,39.35
2018-07-25T03:32:04.088Z,39.48
2018-07-25T03:32:37.129Z,37.35
2018-07-25T03:33:10.132Z,37.63
2018-07-25T03:33:43.156Z,38.80
2018-07-25T03:34:16.170Z,39.65
2018-07-25T03:34:49.167Z,39.48
2018-07-25T03:35:22.212Z,41.05
2018-07-25T03:35:56.337Z,36.50
2018-07-25T03:36:29.407Z,39.20
2018-07-25T03:37:02.414Z,36.68
2018-07-25T03:37:35.696Z,40.70
2018-07-25T03:38:08.699Z,39.45
2018-07-25T03:38:41.717Z,40.05
2018-07-25T03:39:14.719Z,36.73
2018-07-25T03:39:47.706Z,39.78
2018-07-25T03:40:20.719Z,40.38
2018-07-25T03:40:53.723Z,38.53
2018-07-25T03:41:26.754Z,41.08
2018-07-25T03:41:59.763Z,46.20
2018-07-25T03:42:32.801Z,40.35
2018-07-25T03:43:05.829Z,36.28
2018-07-25T03:43:38.853Z,44.53
2018-07-25T03:44:11.899Z,43.00
2018-07-25T03:44:44.910Z,40.35
2018-07-25T03:45:17.978Z,38.35
2018-07-25T03:45:51.055Z,44.85
2018-07-25T03:46:24.053Z,36.95
2018-07-25T03:46:57.068Z,37.35
2018-07-25T03:47:30.071Z,38.48
2018-07-25T03:48:03.093Z,39.50
2018-07-25T03:48:36.099Z,37.08
2018-07-25T03:49:09.145Z,36.30
2018-07-25T03:51:11.701Z,39.10
2018-07-25T03:51:44.714Z,42.62
2018-07-25T03:52:17.748Z,37.20
2018-07-25T03:52:50.785Z,42.08
2018-07-25T03:53:23.795Z,43.95
2018-07-25T03:53:56.800Z,39.58
2018-07-25T03:54:30.212Z,40.50
2018-07-25T03:55:03.291Z,36.88
2018-07-25T03:55:36.310Z,38.30
2018-07-25T03:56:09.363Z,40.75
2018-07-25T03:56:42.405Z,37.75
2018-07-25T03:57:15.416Z,38.00
2018-07-25T03:57:48.449Z,38.28
2018-07-25T03:58:21.451Z,39.35
2018-07-25T03:58:54.492Z,39.50
2018-07-25T03:59:27.514Z,40.70
2018-07-25T04:00:00.518Z,38.02
2018-07-25T04:00:33.665Z,39.50
2018-07-25T04:01:06.733Z,38.60
2018-07-25T04:01:39.761Z,48.42
2018-07-25T04:02:12.829Z,37.63
2018-07-25T04:02:45.873Z,40.03
2018-07-25T04:03:18.914Z,37.78
2018-07-25T04:03:51.967Z,38.98
2018-07-25T04:04:25.012Z,38.83
2018-07-25T04:04:58.065Z,36.83
2018-07-25T04:05:31.148Z,38.67
2018-07-25T04:06:04.310Z,38.98
2018-07-25T04:06:37.324Z,39.95
2018-07-25T04:07:10.411Z,42.78
2018-07-25T04:07:43.503Z,37.70
2018-07-25T04:08:16.578Z,38.33
2018-07-25T04:08:49.590Z,39.27
2018-07-25T04:09:22.571Z,34.35
2018-07-25T04:09:55.557Z,40.35
2018-07-25T04:10:28.613Z,37.25
2018-07-25T04:11:01.629Z,37.25
2018-07-25T04:11:34.657Z,35.90
2018-07-25T04:12:07.677Z,38.08
2018-07-25T04:12:40.726Z,35.90
2018-07-25T04:13:13.759Z,36.63
2018-07-25T04:13:46.803Z,41.42
2018-07-25T04:14:19.931Z,37.85
2018-07-25T04:14:52.943Z,34.55
2018-07-25T04:15:25.977Z,35.45
2018-07-25T04:15:58.989Z,37.73
2018-07-25T04:16:31.993Z,35.58
2018-07-25T04:17:05.088Z,38.60
2018-07-25T04:17:44.339Z,39.73
2018-07-25T04:18:17.451Z,36.28
2018-07-25T04:18:50.469Z,40.12
2018-07-25T04:19:23.527Z,36.70
2018-07-25T04:19:56.595Z,40.35
2018-07-25T04:20:29.634Z,36.60
2018-07-25T04:21:02.686Z,34.45
2018-07-25T04:21:35.765Z,34.83
2018-07-25T04:22:08.764Z,36.10
2018-07-25T04:22:41.859Z,35.43
2018-07-25T04:23:14.901Z,38.95
2018-07-25T04:23:47.920Z,35.48
2018-07-25T04:24:20.945Z,35.92
2018-07-25T04:24:53.927Z,35.70
2018-07-25T04:25:26.929Z,40.12
2018-07-25T04:26:00.023Z,37.63
2018-07-25T04:26:33.362Z,38.05
2018-07-25T04:27:06.374Z,35.23
2018-07-25T04:27:42.366Z,36.65
2018-07-25T04:28:15.926Z,37.17
2018-07-25T04:28:48.952Z,34.95
2018-07-25T04:29:21.964Z,33.48
2018-07-25T04:29:54.964Z,36.73
2018-07-25T04:30:28.008Z,36.73
2018-07-25T04:31:01.002Z,37.23
2018-07-25T04:31:49.102Z,36.53
2018-07-25T04:32:22.112Z,36.47
2018-07-25T04:32:55.153Z,37.95
2018-07-25T04:33:28.163Z,36.83
2018-07-25T04:34:01.168Z,38.45
2018-07-25T04:34:34.150Z,41.20
2018-07-25T04:35:07.950Z,39.67
2018-07-25T04:35:40.972Z,35.60
2018-07-25T04:36:14.096Z,34.83
2018-07-25T04:36:47.098Z,39.15
2018-07-25T04:37:20.158Z,38.48
2018-07-25T04:37:53.194Z,41.00
2018-07-25T04:38:26.246Z,39.40
2018-07-25T04:38:59.260Z,40.43
2018-07-25T04:39:32.276Z,39.60
2018-07-25T04:40:06.124Z,35.83
2018-07-25T04:40:39.159Z,41.08
2018-07-25T04:41:12.187Z,40.15
2018-07-25T04:41:45.205Z,37.90
2018-07-25T04:42:18.204Z,38.25
2018-07-25T04:42:51.256Z,40.28
2018-07-25T04:43:24.269Z,36.73
2018-07-25T04:43:57.322Z,41.20
2018-07-25T04:44:30.349Z,42.95
2018-07-25T04:45:03.937Z,42.50
2018-07-25T04:45:36.938Z,44.63
2018-07-25T04:46:10.372Z,43.33
2018-07-25T04:46:43.341Z,41.33
2018-07-25T04:47:16.308Z,45.10
2018-07-25T04:47:49.291Z,41.02
2018-07-25T04:48:22.316Z,43.23
2018-07-25T04:48:55.295Z,44.05
2018-07-25T04:49:28.318Z,44.90
2018-07-25T04:50:01.324Z,42.73
2018-07-25T04:50:34.384Z,43.23
2018-07-25T04:51:07.655Z,49.30
2018-07-25T04:51:40.690Z,39.60
2018-07-25T04:52:14.206Z,45.35
2018-07-25T04:52:47.246Z,46.37
2018-07-25T04:53:20.292Z,44.15
2018-07-25T04:53:53.309Z,38.65
2018-07-25T04:54:26.310Z,36.08
2018-07-25T04:54:59.312Z,44.53
2018-07-25T04:55:32.324Z,40.78
2018-07-25T04:56:05.496Z,39.90
2018-07-25T04:56:38.464Z,39.38
2018-07-25T04:57:11.757Z,38.70
2018-07-25T04:57:44.832Z,44.30
2018-07-25T04:58:17.872Z,39.03
2018-07-25T04:58:50.906Z,38.92
2018-07-25T04:59:23.938Z,38.90
2018-07-25T04:59:56.945Z,39.80
2018-07-25T05:00:29.970Z,34.73
2018-07-25T05:01:03.000Z,38.63
2018-07-25T05:01:36.007Z,35.35
2018-07-25T05:02:09.223Z,37.58
2018-07-25T05:02:42.234Z,36.95
2018-07-25T05:03:15.238Z,39.27
2018-07-25T05:03:48.253Z,37.98
2018-07-25T05:04:21.262Z,39.13
2018-07-25T05:04:54.286Z,38.83
2018-07-25T05:05:27.314Z,40.48
2018-07-25T05:06:00.324Z,41.15
2018-07-25T05:06:33.341Z,36.83
2018-07-25T05:07:06.409Z,43.90
2018-07-25T05:07:39.458Z,42.08
2018-07-25T05:08:12.500Z,43.20
2018-07-25T05:08:45.562Z,40.55
2018-07-25T05:09:18.557Z,43.33
2018-07-25T05:09:51.551Z,43.23
2018-07-25T05:10:24.636Z,42.58
2018-07-25T05:10:57.820Z,45.10
2018-07-25T05:11:30.850Z,45.30
2018-07-25T05:12:03.925Z,40.48
2018-07-25T05:12:36.969Z,42.88
2018-07-25T05:13:09.952Z,44.53
2018-07-25T05:13:42.970Z,43.35
2018-07-25T05:14:15.972Z,42.58
2018-07-25T05:14:49.016Z,43.63
2018-07-25T05:15:22.032Z,38.17
2018-07-25T05:15:55.052Z,43.38
2018-07-25T05:16:28.084Z,40.75
2018-07-25T05:17:01.124Z,40.80
2018-07-25T05:17:34.112Z,38.90
2018-07-25T05:18:07.168Z,40.33
2018-07-25T05:18:40.152Z,38.42
2018-07-25T05:19:13.204Z,37.88
2018-07-25T05:19:46.234Z,38.73
2018-07-25T05:20:19.218Z,37.75
2018-07-25T05:20:52.256Z,38.58
2018-07-25T05:21:25.268Z,38.98
2018-07-25T05:21:58.300Z,36.68
2018-07-25T05:22:31.314Z,36.90
2018-07-25T05:23:04.423Z,37.67
2018-07-25T05:23:37.498Z,38.10
2018-07-25T05:24:10.488Z,36.75
2018-07-25T05:24:43.564Z,42.00
2018-07-25T05:25:16.581Z,37.85
2018-07-25T05:25:49.652Z,39.30
2018-07-25T05:26:22.702Z,40.48
2018-07-25T05:27:22.463Z,40.73
2018-07-25T05:27:55.530Z,38.48
2018-07-25T05:28:28.560Z,38.88
2018-07-25T05:29:01.588Z,39.08
2018-07-25T05:29:34.624Z,39.78
2018-07-25T05:30:07.748Z,42.53
2018-07-25T05:30:40.758Z,39.78
2018-07-25T05:31:13.817Z,37.20
2018-07-25T05:31:47.110Z,38.70
2018-07-25T05:32:20.131Z,42.80
2018-07-25T05:32:53.079Z,38.05
2018-07-25T05:33:26.100Z,39.30
2018-07-25T05:33:59.136Z,41.75
2018-07-25T05:34:32.196Z,37.25
2018-07-25T05:35:05.448Z,37.42
2018-07-25T05:35:38.454Z,34.60
2018-07-25T05:36:11.516Z,34.50
2018-07-25T05:36:44.651Z,36.83
2018-07-25T05:37:17.664Z,33.98
2018-07-25T05:37:50.676Z,34.13
2018-07-25T05:38:23.658Z,35.13
2018-07-25T05:38:56.667Z,31.12
2018-07-25T05:39:29.668Z,38.70
2018-07-25T05:40:03.028Z,32.55
2018-07-25T05:40:36.090Z,30.75
2018-07-25T05:41:09.112Z,32.05
2018-07-25T05:41:42.417Z,32.20
2018-07-25T05:42:15.426Z,32.35
2018-07-25T05:42:48.468Z,30.82
2018-07-25T05:43:21.504Z,28.57
2018-07-25T05:43:54.618Z,29.72
2018-07-25T05:44:27.584Z,33.20
2018-07-25T05:45:00.938Z,29.05
2018-07-25T05:45:34.004Z,33.13
2018-07-25T05:46:07.405Z,29.15
2018-07-25T05:46:40.426Z,29.30
2018-07-25T05:47:13.484Z,28.92
2018-07-25T05:47:46.500Z,30.55
2018-07-25T05:48:19.536Z,28.25
2018-07-25T05:48:52.538Z,27.00
2018-07-25T05:49:25.596Z,28.07
2018-07-25T05:49:58.554Z,27.62
2018-07-25T05:50:31.622Z,27.93
2018-07-25T05:51:04.664Z,28.32
2018-07-25T05:51:37.774Z,27.25
2018-07-25T05:52:10.823Z,27.70
2018-07-25T05:52:43.850Z,27.17
2018-07-25T05:53:16.834Z,28.40
2018-07-25T05:53:49.852Z,28.67
2018-07-25T05:54:22.916Z,27.98
2018-07-25T05:54:55.892Z,28.55
2018-07-25T05:55:28.912Z,26.07
2018-07-25T05:56:02.036Z,29.07
2018-07-25T05:56:35.106Z,28.83
2018-07-25T05:57:08.194Z,26.97
2018-07-25T05:57:41.283Z,25.57
2018-07-25T05:58:14.290Z,27.25
2018-07-25T05:58:47.347Z,26.55
2018-07-25T05:59:20.840Z,30.17
2018-07-25T05:59:53.908Z,30.92
2018-07-25T06:00:26.974Z,28.67
2018-07-25T06:00:59.999Z,27.80
2018-07-25T06:01:33.049Z,25.88
2018-07-25T06:02:06.173Z,26.23
2018-07-25T06:02:39.178Z,25.65
2018-07-25T06:03:12.320Z,27.85
2018-07-25T06:03:45.305Z,27.10
2018-07-25T06:04:18.338Z,26.15
2018-07-25T06:04:51.359Z,28.98
2018-07-25T06:05:24.411Z,30.25
2018-07-25T06:05:57.629Z,28.92
2018-07-25T06:06:30.607Z,28.12
2018-07-25T06:07:03.661Z,27.50
2018-07-25T06:07:37.011Z,28.35
2018-07-25T06:08:10.034Z,25.82
2018-07-25T06:08:43.046Z,26.37
2018-07-25T06:09:16.137Z,27.45
2018-07-25T06:09:49.176Z,29.00
2018-07-25T06:10:22.199Z,25.15
2018-07-25T06:10:55.255Z,27.65
2018-07-25T06:11:28.313Z,27.45
2018-07-25T06:12:01.333Z,28.60
2018-07-25T06:12:34.389Z,27.70
2018-07-25T06:13:07.453Z,30.10
2018-07-25T06:13:40.516Z,27.25
2018-07-25T06:14:13.591Z,27.52
2018-07-25T06:14:46.600Z,24.85
2018-07-25T06:15:19.634Z,31.93
2018-07-25T06:15:52.661Z,26.57
2018-07-25T06:16:25.682Z,26.93
2018-07-25T06:16:58.683Z,25.23
2018-07-25T06:17:31.665Z,27.80
2018-07-25T06:18:04.963Z,25.40
2018-07-25T06:18:38.009Z,28.32
2018-07-25T06:19:11.059Z,27.70
2018-07-25T06:19:44.081Z,27.42
2018-07-25T06:20:17.089Z,26.57
2018-07-25T06:20:50.081Z,28.67
2018-07-25T06:21:23.122Z,29.98
2018-07-25T06:21:56.231Z,27.10
2018-07-25T06:22:29.253Z,27.80
2018-07-25T06:23:02.266Z,28.50
2018-07-25T06:23:35.235Z,30.35
2018-07-25T06:24:08.259Z,27.93
2018-07-25T06:24:41.210Z,27.87
2018-07-25T06:25:14.241Z,28.32
2018-07-25T06:25:47.256Z,25.50
2018-07-25T06:26:20.275Z,28.35
2018-07-25T06:26:53.308Z,27.80
2018-07-25T06:27:26.393Z,24.80
2018-07-25T06:27:59.417Z,26.93
2018-07-25T06:28:32.455Z,27.00
2018-07-25T06:29:05.498Z,26.57
2018-07-25T06:29:38.500Z,27.42
2018-07-25T06:30:11.533Z,28.77
2018-07-25T06:30:44.526Z,25.27
2018-07-25T06:31:17.567Z,25.92
2018-07-25T06:31:50.586Z,27.77
2018-07-25T06:32:23.620Z,29.65
2018-07-25T06:32:56.663Z,29.10
2018-07-25T06:33:30.157Z,29.92
2018-07-25T06:34:03.215Z,28.92
2018-07-25T06:34:36.243Z,27.22
2018-07-25T06:35:09.235Z,24.65
2018-07-25T06:35:42.314Z,26.68
2018-07-25T06:36:15.419Z,26.68
2018-07-25T06:36:48.440Z,25.92
2018-07-25T06:37:21.458Z,27.17
2018-07-25T06:37:54.559Z,28.47
2018-07-25T06:38:27.702Z,26.97
2018-07-25T06:39:00.723Z,24.25
2018-07-25T06:39:33.751Z,23.85
2018-07-25T06:40:07.299Z,24.47
2018-07-25T06:40:40.364Z,24.80
2018-07-25T06:41:13.458Z,26.23
2018-07-25T06:41:46.445Z,25.05
2018-07-25T06:42:19.466Z,24.07
2018-07-25T06:42:53.362Z,27.87
2018-07-25T06:43:26.460Z,23.32
2018-07-25T06:43:59.433Z,27.32
2018-07-25T06:44:32.474Z,24.98
2018-07-25T06:45:05.939Z,26.15
2018-07-25T06:45:38.944Z,27.52
2018-07-25T06:46:12.217Z,22.55
2018-07-25T06:46:45.234Z,21.60
2018-07-25T06:47:18.280Z,23.15
2018-07-25T06:47:51.301Z,21.68
2018-07-25T06:48:24.334Z,25.57
2018-07-25T06:48:57.357Z,21.87
2018-07-25T06:49:30.372Z,24.07
2018-07-25T06:50:04.419Z,21.95
2018-07-25T06:50:37.483Z,22.73
2018-07-25T06:51:10.475Z,21.82
2018-07-25T06:51:43.434Z,21.57
2018-07-25T06:52:16.476Z,22.90
2018-07-25T06:52:49.483Z,22.67
2018-07-25T06:53:22.494Z,22.20
2018-07-25T06:53:55.594Z,22.22
2018-07-25T06:54:28.580Z,21.75
2018-07-25T06:55:01.596Z,23.05
2018-07-25T06:55:34.589Z,22.17
2018-07-25T06:56:07.862Z,19.32
2018-07-25T06:56:40.878Z,25.52
2018-07-25T06:57:13.958Z,20.37
2018-07-25T06:57:46.944Z,21.73
2018-07-25T06:58:19.958Z,20.43
2018-07-25T06:58:52.959Z,19.65
2018-07-25T06:59:25.986Z,21.20
2018-07-25T06:59:59.018Z,19.73
2018-07-25T07:00:31.979Z,21.62
2018-07-25T07:01:05.003Z,21.48
2018-07-25T07:01:37.972Z,22.35
2018-07-25T07:02:11.008Z,22.93
2018-07-25T07:02:44.026Z,23.40
2018-07-25T07:03:17.006Z,23.92
2018-07-25T07:03:50.290Z,23.83
2018-07-25T07:04:23.328Z,22.00
2018-07-25T07:04:56.553Z,24.23
2018-07-25T07:05:29.560Z,24.72
2018-07-25T07:06:02.568Z,24.70
2018-07-25T07:06:35.617Z,21.60
2018-07-25T07:07:08.613Z,19.80
2018-07-25T07:07:41.628Z,20.75
2018-07-25T07:08:14.621Z,20.12
2018-07-25T07:08:47.626Z,20.20
2018-07-25T07:09:20.642Z,19.32
2018-07-25T07:09:53.674Z,20.68
2018-07-25T07:10:26.697Z,19.15
2018-07-25T07:10:59.772Z,19.75
2018-07-25T07:11:32.812Z,19.80
2018-07-25T07:12:05.956Z,18.32
2018-07-25T07:12:39.029Z,23.62
2018-07-25T07:13:12.045Z,22.05
2018-07-25T07:13:45.109Z,20.30
2018-07-25T07:14:18.144Z,21.02
2018-07-25T07:14:51.224Z,22.05
2018-07-25T07:15:24.368Z,22.00
2018-07-25T07:15:57.409Z,19.25
2018-07-25T07:16:30.376Z,20.02
2018-07-25T07:17:03.450Z,20.37